createdAt,value
2023-03-12T00:02:38.395Z,57.81
2023-03-12T00:07:42.522Z,57.95
2023-03-12T00:12:45.284Z,57.93
2023-03-12T00:17:48.504Z,57.95
2023-03-12T00:22:52.609Z,58.05
2023-03-12T00:27:55.349Z,57.86
2023-03-12T00:32:58.124Z,58.04
2023-03-12T00:38:02.178Z,58.00
2023-03-12T00:43:04.962Z,57.96
2023-03-12T00:48:08.041Z,58.16
2023-03-12T00:53:12.199Z,58.31
2023-03-12T00:58:14.946Z,58.34
2023-03-12T01:03:17.912Z,58.22
2023-03-12T01:08:23.045Z,58.22
2023-03-12T01:13:26.151Z,58.31
2023-03-12T01:18:28.861Z,58.41
2023-03-12T01:23:33.278Z,58.52
2023-03-12T01:28:36.018Z,58.76
2023-03-12T01:33:38.862Z,59.10
2023-03-12T01:38:42.994Z,59.33
2023-03-12T01:43:46.257Z,59.53
2023-03-12T01:48:52.562Z,59.67
2023-03-12T01:54:00.368Z,59.93
2023-03-12T01:59:11.174Z,60.05
2023-03-12T02:04:17.238Z,60.14
2023-03-12T02:09:23.124Z,60.50
2023-03-12T02:14:27.368Z,60.65
2023-03-12T02:19:39.309Z,61.00
2023-03-12T02:24:49.744Z,61.02
2023-03-12T02:29:53.843Z,61.13
2023-03-12T02:34:58.027Z,61.48
2023-03-12T02:40:08.638Z,61.60
2023-03-12T02:45:12.944Z,61.82
2023-03-12T02:50:16.207Z,61.86
2023-03-12T02:55:19.159Z,62.06
2023-03-12T03:00:23.631Z,62.36
2023-03-12T03:05:28.728Z,62.47
2023-03-12T03:10:31.779Z,62.61
2023-03-12T03:15:36.223Z,62.73
2023-03-12T03:20:39.394Z,62.68
2023-03-12T03:25:42.177Z,62.91
2023-03-12T03:30:46.773Z,63.31
2023-03-12T03:35:50.631Z,63.31
2023-03-12T03:40:54.094Z,63.52
2023-03-12T03:46:03.799Z,63.57
2023-03-12T03:51:11.957Z,63.82
2023-03-12T03:56:18.899Z,64.19
2023-03-12T04:01:25.970Z,64.17
2023-03-12T04:06:29.829Z,64.27
2023-03-12T04:11:33.180Z,64.56
2023-03-12T04:16:38.879Z,64.67
2023-03-12T04:21:41.742Z,64.27
2023-03-12T04:26:45.154Z,64.61
2023-03-12T04:31:50.353Z,64.76
2023-03-12T04:36:53.229Z,64.90
2023-03-12T04:41:57.842Z,65.08
2023-03-12T04:47:04.060Z,65.26
2023-03-12T04:52:07.627Z,65.36
2023-03-12T04:57:10.896Z,65.42
2023-03-12T05:02:15.041Z,65.52
2023-03-12T05:07:19.706Z,65.79
2023-03-12T05:12:22.588Z,65.61
2023-03-12T05:17:26.868Z,65.92
2023-03-12T05:22:29.728Z,66.25
2023-03-12T05:27:33.252Z,65.71
2023-03-12T05:32:37.464Z,65.51
2023-03-12T05:37:42.853Z,65.33
2023-03-12T05:42:46.793Z,65.19
2023-03-12T05:47:51.219Z,65.24
2023-03-12T05:52:54.224Z,65.08
2023-03-12T05:57:57.007Z,64.97
2023-03-12T06:03:01.280Z,65.01
2023-03-12T06:08:05.462Z,65.11
2023-03-12T06:13:08.775Z,65.22
2023-03-12T06:18:13.010Z,65.23
2023-03-12T06:23:15.782Z,65.17
2023-03-12T06:28:18.536Z,65.14
2023-03-12T06:33:22.603Z,65.12
2023-03-12T06:38:25.631Z,65.07
2023-03-12T06:43:30.260Z,65.09
2023-03-12T06:48:36.738Z,65.10
2023-03-12T06:53:42.200Z,65.15
2023-03-12T06:58:45.803Z,65.20
2023-03-12T07:03:49.940Z,65.14
2023-03-12T07:08:53.424Z,65.15
2023-03-12T07:13:57.242Z,65.34
2023-03-12T07:19:01.555Z,65.13
2023-03-12T07:24:06.939Z,65.17
2023-03-12T07:29:09.733Z,65.17
2023-03-12T07:34:13.917Z,65.26
2023-03-12T07:39:16.733Z,65.45
2023-03-12T07:44:19.468Z,65.46
2023-03-12T07:49:23.640Z,65.47
2023-03-12T07:54:30.564Z,65.46
2023-03-12T07:59:33.885Z,65.51
2023-03-12T08:04:38.083Z,65.38
2023-03-12T08:09:40.995Z,44.16
2023-03-12T08:14:44.122Z,42.64
2023-03-12T08:19:48.573Z,45.88
2023-03-12T08:24:51.266Z,46.99
2023-03-12T08:29:54.001Z,48.11
2023-03-12T08:34:58.638Z,49.24
2023-03-12T08:40:01.429Z,50.27
2023-03-12T08:45:04.504Z,51.36
2023-03-12T08:50:09.976Z,52.35
2023-03-12T08:55:13.088Z,53.07
2023-03-12T09:00:18.142Z,53.30
2023-03-12T09:05:22.425Z,53.54
2023-03-12T09:10:25.712Z,54.11
2023-03-12T09:15:28.757Z,53.94
2023-03-12T09:20:32.878Z,54.42
2023-03-12T09:25:35.622Z,54.33
2023-03-12T09:30:39.049Z,54.31
2023-03-12T09:35:43.858Z,54.37
2023-03-12T09:40:48.463Z,54.88
2023-03-12T09:45:52.958Z,54.77
2023-03-12T09:50:57.540Z,54.59
2023-03-12T09:56:03.582Z,54.71
2023-03-12T10:01:19.338Z,54.76
2023-03-12T10:06:25.820Z,54.85
2023-03-12T10:11:39.116Z,55.05
2023-03-12T10:16:55.363Z,55.12
2023-03-12T10:22:08.041Z,55.14
2023-03-12T10:27:14.700Z,55.22
2023-03-12T10:32:21.995Z,55.47
2023-03-12T10:37:30.407Z,55.53
2023-03-12T10:42:34.235Z,55.51
2023-03-12T10:47:38.592Z,55.67
2023-03-12T10:52:43.406Z,55.49
2023-03-12T10:57:46.138Z,55.23
2023-03-12T11:02:58.671Z,55.34
2023-03-12T11:08:04.369Z,55.38
2023-03-12T11:13:23.842Z,55.43
2023-03-12T11:18:32.133Z,55.42
2023-03-12T11:23:37.617Z,55.34
2023-03-12T11:28:44.107Z,55.36
2023-03-12T11:33:46.798Z,55.31
2023-03-12T11:38:58.733Z,55.32
2023-03-12T11:44:20.616Z,55.27
2023-03-12T11:49:37.838Z,55.41
2023-03-12T11:54:58.756Z,55.64
2023-03-12T12:00:13.088Z,55.66
2023-03-12T12:05:23.381Z,56.29
2023-03-12T12:10:32.677Z,56.33
2023-03-12T12:15:44.225Z,41.10
2023-03-12T12:20:51.550Z,41.04
2023-03-12T12:26:05.670Z,41.98
2023-03-12T12:31:31.002Z,42.97
2023-03-12T12:36:36.045Z,44.50
2023-03-12T12:41:48.439Z,45.32
2023-03-12T12:46:58.628Z,46.29
2023-03-12T12:52:05.885Z,46.73
2023-03-12T12:57:16.708Z,47.07
2023-03-12T13:02:23.159Z,47.59
2023-03-12T13:07:34.901Z,47.92
2023-03-12T13:12:48.589Z,48.31
2023-03-12T13:18:23.759Z,48.44
2023-03-12T13:23:37.714Z,48.86
2023-03-12T13:29:14.048Z,49.31
2023-03-12T13:34:53.495Z,49.67
2023-03-12T13:39:56.456Z,50.08
2023-03-12T13:45:23.104Z,50.63
2023-03-12T13:50:26.640Z,51.26
2023-03-12T13:55:31.570Z,51.83
2023-03-12T14:00:42.404Z,52.65
2023-03-12T14:05:52.941Z,53.23
2023-03-12T14:11:13.844Z,53.85
2023-03-12T14:16:27.061Z,53.99
2023-03-12T14:21:36.988Z,54.13
2023-03-12T14:26:41.296Z,54.01
2023-03-12T14:31:46.918Z,54.14
2023-03-12T14:36:58.766Z,54.08
2023-03-12T14:42:04.893Z,54.28
2023-03-12T14:47:11.440Z,54.20
2023-03-12T14:52:15.175Z,54.46
2023-03-12T14:57:24.520Z,54.43
2023-03-12T15:02:31.123Z,54.69
2023-03-12T15:07:37.307Z,54.55
2023-03-12T15:12:40.127Z,54.68
2023-03-12T15:17:44.505Z,54.74
2023-03-12T15:22:47.586Z,54.96
2023-03-12T15:28:00.886Z,54.97
2023-03-12T15:33:13.977Z,55.13
2023-03-12T15:38:18.361Z,55.14
2023-03-12T15:43:22.761Z,55.18
2023-03-12T15:48:30.737Z,55.46
2023-03-12T15:53:35.306Z,55.39
2023-03-12T15:58:39.928Z,55.30
2023-03-12T16:03:46.178Z,55.38
2023-03-12T16:08:51.928Z,55.20
2023-03-12T16:14:02.857Z,55.26
2023-03-12T16:19:13.004Z,55.29
2023-03-12T16:24:16.763Z,55.20
2023-03-12T16:29:21.378Z,55.09
2023-03-12T16:34:26.646Z,54.68
2023-03-12T16:39:32.954Z,54.06
2023-03-12T16:44:36.108Z,53.81
2023-03-12T16:49:40.912Z,53.58
2023-03-12T16:54:43.648Z,53.38
2023-03-12T16:59:46.445Z,53.24
2023-03-12T17:04:51.058Z,53.02
2023-03-12T17:09:53.947Z,53.02
2023-03-12T17:14:57.407Z,53.49
2023-03-12T17:20:01.433Z,53.42
2023-03-12T17:25:05.273Z,53.76
2023-03-12T17:30:09.499Z,53.56
2023-03-12T17:35:14.144Z,53.96
2023-03-12T17:40:17.006Z,53.73
2023-03-12T17:45:21.649Z,53.94
2023-03-12T17:50:25.943Z,54.03
2023-03-12T17:55:28.650Z,53.84
2023-03-12T18:00:31.514Z,53.75
2023-03-12T18:05:39.445Z,53.76
2023-03-12T18:10:42.349Z,54.00
2023-03-12T18:15:51.417Z,53.60
2023-03-12T18:20:55.871Z,53.74
2023-03-12T18:25:58.590Z,53.64
2023-03-12T18:31:01.404Z,53.63
2023-03-12T18:36:06.370Z,53.63
2023-03-12T18:41:12.257Z,53.78
2023-03-12T18:46:15.024Z,53.63
2023-03-12T18:51:19.098Z,53.86
2023-03-12T18:56:21.779Z,53.77
2023-03-12T19:01:24.583Z,54.17
2023-03-12T19:06:35.028Z,54.14
2023-03-12T19:11:43.751Z,54.34
2023-03-12T19:16:46.471Z,54.68
2023-03-12T19:21:50.641Z,54.37
2023-03-12T19:26:53.332Z,54.39
2023-03-12T19:31:56.084Z,54.35
2023-03-12T19:37:00.200Z,54.34
2023-03-12T19:42:03.078Z,54.35
2023-03-12T19:47:06.998Z,54.34
2023-03-12T19:52:11.313Z,54.47
2023-03-12T19:57:14.066Z,54.42
2023-03-12T20:02:17.044Z,54.86
2023-03-12T20:07:21.326Z,54.69
2023-03-12T20:12:24.562Z,54.73
2023-03-12T20:17:27.848Z,54.76
2023-03-12T20:22:32.767Z,54.83
2023-03-12T20:27:35.508Z,55.05
2023-03-12T20:32:38.270Z,55.32
2023-03-12T20:37:42.423Z,55.38
2023-03-12T20:42:45.340Z,55.52
2023-03-12T20:47:48.082Z,55.73
2023-03-12T20:52:52.427Z,55.76
2023-03-12T20:57:55.244Z,55.88
2023-03-12T21:02:57.939Z,55.62
2023-03-12T21:08:02.025Z,55.96
2023-03-12T21:13:05.967Z,55.98
2023-03-12T21:18:08.677Z,55.86
2023-03-12T21:23:13.111Z,55.82
2023-03-12T21:28:16.171Z,55.80
2023-03-12T21:33:19.220Z,55.17
2023-03-12T21:38:23.453Z,55.69
2023-03-12T21:43:30.074Z,55.50
2023-03-12T21:48:32.866Z,55.78
2023-03-12T21:53:37.756Z,55.37
2023-03-12T21:58:40.645Z,55.48
2023-03-12T22:03:44.712Z,55.46
2023-03-12T22:08:49.108Z,55.30
2023-03-12T22:13:51.815Z,55.24
2023-03-12T22:18:54.523Z,55.44
2023-03-12T22:23:58.833Z,55.75
2023-03-12T22:29:02.121Z,55.76
2023-03-12T22:34:04.845Z,55.63
2023-03-12T22:39:08.980Z,55.60
2023-03-12T22:44:11.726Z,55.61
2023-03-12T22:49:16.215Z,55.91
2023-03-12T22:54:20.652Z,55.75
2023-03-12T22:59:23.397Z,56.15
2023-03-12T23:04:26.271Z,56.05
2023-03-12T23:09:30.609Z,55.95
2023-03-12T23:14:34.490Z,55.91
2023-03-12T23:19:37.257Z,55.97
2023-03-12T23:24:41.431Z,56.04
2023-03-12T23:29:44.072Z,56.15
2023-03-12T23:34:46.743Z,56.28
2023-03-12T23:39:54.820Z,56.12
2023-03-12T23:44:57.760Z,56.23
2023-03-12T23:50:00.446Z,56.28
2023-03-12T23:55:04.980Z,56.42
